sensor_id;sensor_type;location;lat;lon;timestamp;pressure;altitude;pressure_sealevel;temperature;humidity
73952;BME280;62304;47.662;18.324;2023-08-21T00:02:07;100707.09;;;22.81;89.25
73952;BME280;62304;47.662;18.324;2023-08-21T00:05:10;100702.25;;;22.65;90.20
73952;BME280;62304;47.662;18.324;2023-08-21T00:08:13;100702.59;;;22.67;90.22
73952;BME280;62304;47.662;18.324;2023-08-21T00:11:16;100707.66;;;22.60;90.60
73952;BME280;62304;47.662;18.324;2023-08-21T00:14:19;100710.66;;;22.69;89.55
73952;BME280;62304;47.662;18.324;2023-08-21T00:17:22;100707.81;;;22.53;90.46
73952;BME280;62304;47.662;18.324;2023-08-21T00:20:25;100713.47;;;22.21;93.22
73952;BME280;62304;47.662;18.324;2023-08-21T00:23:28;100704.16;;;22.04;93.89
73952;BME280;62304;47.662;18.324;2023-08-21T00:26:31;100700.63;;;22.00;94.35
73952;BME280;62304;47.662;18.324;2023-08-21T00:29:34;100715.06;;;22.22;92.87
73952;BME280;62304;47.662;18.324;2023-08-21T00:32:37;100712.66;;;22.20;92.38
73952;BME280;62304;47.662;18.324;2023-08-21T00:35:42;100715.56;;;22.17;93.33
73952;BME280;62304;47.662;18.324;2023-08-21T00:38:45;100722.81;;;22.18;93.69
73952;BME280;62304;47.662;18.324;2023-08-21T00:41:48;100725.13;;;22.23;93.15
73952;BME280;62304;47.662;18.324;2023-08-21T00:44:51;100724.78;;;22.21;93.85
73952;BME280;62304;47.662;18.324;2023-08-21T00:47:54;100717.47;;;21.68;96.01
73952;BME280;62304;47.662;18.324;2023-08-21T00:50:58;100726.66;;;21.72;96.01
73952;BME280;62304;47.662;18.324;2023-08-21T00:54:01;100721.84;;;21.73;96.28
73952;BME280;62304;47.662;18.324;2023-08-21T00:57:04;100725.13;;;21.87;95.22
73952;BME280;62304;47.662;18.324;2023-08-21T01:00:08;100723.81;;;21.92;94.96
73952;BME280;62304;47.662;18.324;2023-08-21T01:03:14;100732.56;;;21.97;93.87
73952;BME280;62304;47.662;18.324;2023-08-21T01:06:18;100722.06;;;21.98;93.53
73952;BME280;62304;47.662;18.324;2023-08-21T01:12:38;100737.66;;;21.86;94.62
73952;BME280;62304;47.662;18.324;2023-08-21T01:15:45;100731.47;;;21.75;95.49
73952;BME280;62304;47.662;18.324;2023-08-21T01:18:50;100741.06;;;21.97;94.35
73952;BME280;62304;47.662;18.324;2023-08-21T01:21:53;100734.44;;;22.04;93.11
73952;BME280;62304;47.662;18.324;2023-08-21T01:24:56;100732.81;;;21.87;93.87
73952;BME280;62304;47.662;18.324;2023-08-21T01:27:59;100735.91;;;21.92;94.16
73952;BME280;62304;47.662;18.324;2023-08-21T01:31:15;100740.56;;;21.83;94.01
73952;BME280;62304;47.662;18.324;2023-08-21T01:34:20;100737.53;;;21.74;94.10
73952;BME280;62304;47.662;18.324;2023-08-21T01:37:24;100737.94;;;21.53;95.29
73952;BME280;62304;47.662;18.324;2023-08-21T01:40:29;100741.59;;;21.53;95.18
73952;BME280;62304;47.662;18.324;2023-08-21T01:43:34;100740.91;;;21.65;94.82
73952;BME280;62304;47.662;18.324;2023-08-21T01:46:37;100738.19;;;21.62;94.77
73952;BME280;62304;47.662;18.324;2023-08-21T01:49:40;100738.41;;;21.71;94.32
73952;BME280;62304;47.662;18.324;2023-08-21T01:52:43;100728.00;;;21.68;92.99
73952;BME280;62304;47.662;18.324;2023-08-21T01:55:46;100737.59;;;21.51;94.49
73952;BME280;62304;47.662;18.324;2023-08-21T01:58:51;100733.47;;;21.55;94.30
73952;BME280;62304;47.662;18.324;2023-08-21T02:01:54;100729.63;;;21.46;94.97
73952;BME280;62304;47.662;18.324;2023-08-21T02:04:58;100725.88;;;21.33;95.59
73952;BME280;62304;47.662;18.324;2023-08-21T02:08:01;100726.47;;;21.44;94.63
73952;BME280;62304;47.662;18.324;2023-08-21T02:11:04;100733.13;;;21.53;94.36
73952;BME280;62304;47.662;18.324;2023-08-21T02:14:07;100733.78;;;21.41;94.75
73952;BME280;62304;47.662;18.324;2023-08-21T02:17:10;100736.28;;;21.55;93.57
73952;BME280;62304;47.662;18.324;2023-08-21T02:20:13;100727.91;;;21.52;93.29
73952;BME280;62304;47.662;18.324;2023-08-21T02:23:16;100735.94;;;21.53;93.27
73952;BME280;62304;47.662;18.324;2023-08-21T02:26:19;100730.88;;;21.25;94.70
73952;BME280;62304;47.662;18.324;2023-08-21T02:29:22;100738.44;;;20.86;96.49
73952;BME280;62304;47.662;18.324;2023-08-21T02:32:25;100733.94;;;20.92;96.50
73952;BME280;62304;47.662;18.324;2023-08-21T02:35:28;100724.09;;;20.77;97.23
73952;BME280;62304;47.662;18.324;2023-08-21T02:38:31;100729.59;;;20.61;98.34
73952;BME280;62304;47.662;18.324;2023-08-21T02:41:34;100725.37;;;20.72;97.82
73952;BME280;62304;47.662;18.324;2023-08-21T02:44:37;100731.56;;;20.87;96.79
73952;BME280;62304;47.662;18.324;2023-08-21T02:47:40;100727.66;;;20.81;97.25
73952;BME280;62304;47.662;18.324;2023-08-21T02:50:44;100721.06;;;20.91;97.62
73952;BME280;62304;47.662;18.324;2023-08-21T02:53:47;100720.28;;;20.87;98.60
73952;BME280;62304;47.662;18.324;2023-08-21T02:56:50;100715.63;;;20.77;99.42
73952;BME280;62304;47.662;18.324;2023-08-21T02:59:53;100717.34;;;20.94;98.39
73952;BME280;62304;47.662;18.324;2023-08-21T03:02:56;100713.06;;;20.86;99.09
73952;BME280;62304;47.662;18.324;2023-08-21T03:06:00;100720.50;;;20.76;99.34
73952;BME280;62304;47.662;18.324;2023-08-21T03:09:03;100709.38;;;20.66;100.00
73952;BME280;62304;47.662;18.324;2023-08-21T03:12:07;100711.78;;;20.67;100.00
73952;BME280;62304;47.662;18.324;2023-08-21T03:15:11;100710.50;;;20.95;98.67
73952;BME280;62304;47.662;18.324;2023-08-21T03:18:14;100718.09;;;20.98;98.41
73952;BME280;62304;47.662;18.324;2023-08-21T03:21:17;100717.19;;;21.04;98.14
73952;BME280;62304;47.662;18.324;2023-08-21T03:24:20;100722.59;;;21.15;97.38
73952;BME280;62304;47.662;18.324;2023-08-21T03:27:24;100722.88;;;21.01;98.27
73952;BME280;62304;47.662;18.324;2023-08-21T03:30:27;100726.56;;;20.98;98.45
73952;BME280;62304;47.662;18.324;2023-08-21T03:33:30;100727.38;;;20.98;98.12
73952;BME280;62304;47.662;18.324;2023-08-21T03:36:33;100730.41;;;21.07;97.40
73952;BME280;62304;47.662;18.324;2023-08-21T03:39:37;100728.75;;;21.10;96.83
73952;BME280;62304;47.662;18.324;2023-08-21T03:42:42;100726.00;;;21.06;96.64
73952;BME280;62304;47.662;18.324;2023-08-21T03:45:46;100731.41;;;20.98;97.19
73952;BME280;62304;47.662;18.324;2023-08-21T03:48:49;100725.03;;;20.93;97.15
73952;BME280;62304;47.662;18.324;2023-08-21T03:51:54;100734.44;;;20.83;97.93
73952;BME280;62304;47.662;18.324;2023-08-21T03:54:57;100724.47;;;20.56;100.00
73952;BME280;62304;47.662;18.324;2023-08-21T03:58:00;100722.44;;;20.56;100.00
73952;BME280;62304;47.662;18.324;2023-08-21T04:01:03;100727.09;;;20.66;99.45
73952;BME280;62304;47.662;18.324;2023-08-21T04:04:08;100728.22;;;20.49;100.00
73952;BME280;62304;47.662;18.324;2023-08-21T04:07:12;100727.53;;;20.42;100.00
73952;BME280;62304;47.662;18.324;2023-08-21T04:10:16;100732.56;;;20.54;100.00
73952;BME280;62304;47.662;18.324;2023-08-21T04:13:19;100729.72;;;20.54;100.00
73952;BME280;62304;47.662;18.324;2023-08-21T04:16:22;100733.84;;;20.49;100.00
73952;BME280;62304;47.662;18.324;2023-08-21T04:19:26;100737.84;;;20.52;100.00
73952;BME280;62304;47.662;18.324;2023-08-21T04:22:32;100746.66;;;20.54;100.00
73952;BME280;62304;47.662;18.324;2023-08-21T04:25:35;100756.38;;;20.49;100.00
73952;BME280;62304;47.662;18.324;2023-08-21T04:28:38;100751.53;;;20.50;100.00
73952;BME280;62304;47.662;18.324;2023-08-21T04:31:42;100753.88;;;20.55;100.00
73952;BME280;62304;47.662;18.324;2023-08-21T04:34:45;100750.75;;;20.49;100.00
73952;BME280;62304;47.662;18.324;2023-08-21T04:37:48;100757.97;;;20.50;100.00
73952;BME280;62304;47.662;18.324;2023-08-21T04:40:51;100747.94;;;20.49;100.00
73952;BME280;62304;47.662;18.324;2023-08-21T04:43:54;100758.25;;;20.59;100.00
73952;BME280;62304;47.662;18.324;2023-08-21T04:47:19;100758.78;;;20.51;100.00
73952;BME280;62304;47.662;18.324;2023-08-21T04:50:23;100759.34;;;20.42;100.00
73952;BME280;62304;47.662;18.324;2023-08-21T04:53:26;100756.38;;;20.49;100.00
73952;BME280;62304;47.662;18.324;2023-08-21T04:56:29;100754.47;;;20.66;100.00
73952;BME280;62304;47.662;18.324;2023-08-21T04:59:33;100764.22;;;21.11;100.00
73952;BME280;62304;47.662;18.324;2023-08-21T05:02:36;100764.16;;;21.53;97.83
73952;BME280;62304;47.662;18.324;2023-08-21T05:05:40;100761.78;;;21.71;96.14
73952;BME280;62304;47.662;18.324;2023-08-21T05:08:43;100761.22;;;21.80;97.34
73952;BME280;62304;47.662;18.324;2023-08-21T05:11:47;100757.50;;;22.02;97.39
73952;BME280;62304;47.662;18.324;2023-08-21T05:14:50;100757.88;;;22.20;96.01
73952;BME280;62304;47.662;18.324;2023-08-21T05:17:54;100752.81;;;22.63;94.00
73952;BME280;62304;47.662;18.324;2023-08-21T05:20:57;100757.03;;;22.87;92.40
73952;BME280;62304;47.662;18.324;2023-08-21T05:24:01;100769.06;;;22.91;91.25
73952;BME280;62304;47.662;18.324;2023-08-21T05:27:05;100766.06;;;22.82;90.67
73952;BME280;62304;47.662;18.324;2023-08-21T05:30:09;100769.06;;;22.91;89.69
73952;BME280;62304;47.662;18.324;2023-08-21T05:33:17;100764.75;;;23.15;89.61
73952;BME280;62304;47.662;18.324;2023-08-21T05:36:20;100783.88;;;23.56;87.30
73952;BME280;62304;47.662;18.324;2023-08-21T05:39:23;100779.34;;;23.87;86.57
73952;BME280;62304;47.662;18.324;2023-08-21T05:42:27;100781.91;;;23.81;86.95
73952;BME280;62304;47.662;18.324;2023-08-21T05:45:30;100790.72;;;23.99;86.02
73952;BME280;62304;47.662;18.324;2023-08-21T05:48:34;100795.38;;;24.06;85.08
73952;BME280;62304;47.662;18.324;2023-08-21T05:51:37;100800.28;;;24.43;84.31
73952;BME280;62304;47.662;18.324;2023-08-21T05:54:40;100801.31;;;24.36;83.44
73952;BME280;62304;47.662;18.324;2023-08-21T05:57:43;100804.56;;;24.10;85.49
73952;BME280;62304;47.662;18.324;2023-08-21T06:00:47;100804.31;;;23.92;86.82
73952;BME280;62304;47.662;18.324;2023-08-21T06:03:50;100806.78;;;23.90;85.97
73952;BME280;62304;47.662;18.324;2023-08-21T06:06:54;100810.69;;;23.80;87.26
73952;BME280;62304;47.662;18.324;2023-08-21T06:09:57;100800.13;;;23.68;85.15
73952;BME280;62304;47.662;18.324;2023-08-21T06:13:00;100810.41;;;23.62;86.55
73952;BME280;62304;47.662;18.324;2023-08-21T06:16:04;100820.97;;;23.61;87.22
73952;BME280;62304;47.662;18.324;2023-08-21T06:19:07;100806.72;;;23.77;85.59
73952;BME280;62304;47.662;18.324;2023-08-21T06:22:10;100804.69;;;23.78;86.00
73952;BME280;62304;47.662;18.324;2023-08-21T06:25:13;100808.28;;;23.66;85.54
73952;BME280;62304;47.662;18.324;2023-08-21T06:28:16;100807.78;;;23.55;86.57
73952;BME280;62304;47.662;18.324;2023-08-21T06:31:19;100815.78;;;23.72;85.69
73952;BME280;62304;47.662;18.324;2023-08-21T06:34:24;100804.91;;;23.71;85.68
73952;BME280;62304;47.662;18.324;2023-08-21T06:37:26;100814.66;;;23.70;84.92
73952;BME280;62304;47.662;18.324;2023-08-21T06:40:30;100805.69;;;23.71;85.47
73952;BME280;62304;47.662;18.324;2023-08-21T06:43:33;100807.03;;;23.67;84.23
73952;BME280;62304;47.662;18.324;2023-08-21T06:46:36;100805.69;;;23.71;84.77
73952;BME280;62304;47.662;18.324;2023-08-21T06:49:39;100803.81;;;23.81;84.21
73952;BME280;62304;47.662;18.324;2023-08-21T06:52:42;100807.78;;;23.83;83.26
73952;BME280;62304;47.662;18.324;2023-08-21T06:55:46;100811.34;;;24.00;83.44
73952;BME280;62304;47.662;18.324;2023-08-21T06:58:49;100808.84;;;24.02;83.11
73952;BME280;62304;47.662;18.324;2023-08-21T07:01:52;100807.06;;;24.08;83.12
73952;BME280;62304;47.662;18.324;2023-08-21T07:04:55;100809.03;;;24.23;82.61
73952;BME280;62304;47.662;18.324;2023-08-21T07:07:58;100799.72;;;24.35;81.46
73952;BME280;62304;47.662;18.324;2023-08-21T07:11:02;100797.19;;;25.00;78.46
73952;BME280;62304;47.662;18.324;2023-08-21T07:14:07;100805.84;;;25.64;75.04
73952;BME280;62304;47.662;18.324;2023-08-21T07:17:10;100806.25;;;26.18;72.08
73952;BME280;62304;47.662;18.324;2023-08-21T07:20:13;100804.00;;;26.74;70.88
73952;BME280;62304;47.662;18.324;2023-08-21T07:23:17;100807.56;;;26.96;68.99
73952;BME280;62304;47.662;18.324;2023-08-21T07:26:19;100798.94;;;27.54;69.18
73952;BME280;62304;47.662;18.324;2023-08-21T07:29:22;100802.09;;;28.01;67.46
73952;BME280;62304;47.662;18.324;2023-08-21T07:32:25;100791.53;;;28.43;63.25
73952;BME280;62304;47.662;18.324;2023-08-21T07:35:28;100788.72;;;28.66;64.09
73952;BME280;62304;47.662;18.324;2023-08-21T07:38:32;100788.69;;;28.43;63.72
73952;BME280;62304;47.662;18.324;2023-08-21T07:41:35;100786.63;;;28.76;64.80
73952;BME280;62304;47.662;18.324;2023-08-21T07:44:41;100792.16;;;29.35;60.58
73952;BME280;62304;47.662;18.324;2023-08-21T07:47:44;100789.94;;;29.92;61.16
73952;BME280;62304;47.662;18.324;2023-08-21T07:50:51;100793.78;;;30.18;59.76
73952;BME280;62304;47.662;18.324;2023-08-21T07:54:00;100793.97;;;30.29;59.21
73952;BME280;62304;47.662;18.324;2023-08-21T07:57:03;100798.41;;;30.93;57.63
73952;BME280;62304;47.662;18.324;2023-08-21T08:00:07;100789.94;;;31.59;56.06
73952;BME280;62304;47.662;18.324;2023-08-21T08:03:14;100785.84;;;31.65;54.88
73952;BME280;62304;47.662;18.324;2023-08-21T08:06:18;100784.66;;;31.32;54.45
73952;BME280;62304;47.662;18.324;2023-08-21T08:09:21;100794.38;;;31.40;54.04
73952;BME280;62304;47.662;18.324;2023-08-21T08:12:24;100780.66;;;31.24;54.22
73952;BME280;62304;47.662;18.324;2023-08-21T08:15:28;100787.88;;;31.19;54.50
73952;BME280;62304;47.662;18.324;2023-08-21T08:18:31;100786.75;;;30.97;54.45
73952;BME280;62304;47.662;18.324;2023-08-21T08:21:34;100795.19;;;31.20;53.64
73952;BME280;62304;47.662;18.324;2023-08-21T08:24:37;100795.88;;;31.75;52.75
73952;BME280;62304;47.662;18.324;2023-08-21T08:27:40;100789.19;;;31.84;52.36
73952;BME280;62304;47.662;18.324;2023-08-21T08:30:44;100785.44;;;31.98;50.63
73952;BME280;62304;47.662;18.324;2023-08-21T08:33:47;100783.56;;;32.20;53.51
73952;BME280;62304;47.662;18.324;2023-08-21T08:36:51;100772.34;;;32.84;50.24
73952;BME280;62304;47.662;18.324;2023-08-21T08:39:54;100786.97;;;32.81;50.28
73952;BME280;62304;47.662;18.324;2023-08-21T08:43:00;100782.69;;;33.71;48.20
73952;BME280;62304;47.662;18.324;2023-08-21T08:46:03;100785.91;;;33.84;48.44
73952;BME280;62304;47.662;18.324;2023-08-21T08:49:09;100781.03;;;34.29;48.27
73952;BME280;62304;47.662;18.324;2023-08-21T08:52:12;100781.91;;;33.71;48.22
73952;BME280;62304;47.662;18.324;2023-08-21T08:55:16;100784.09;;;34.09;48.37
73952;BME280;62304;47.662;18.324;2023-08-21T08:58:19;100787.03;;;34.47;46.36
73952;BME280;62304;47.662;18.324;2023-08-21T09:01:22;100779.16;;;34.37;46.14
73952;BME280;62304;47.662;18.324;2023-08-21T09:04:25;100774.97;;;34.65;46.46
73952;BME280;62304;47.662;18.324;2023-08-21T09:07:28;100772.28;;;35.06;45.33
73952;BME280;62304;47.662;18.324;2023-08-21T09:10:31;100773.28;;;35.25;45.94
73952;BME280;62304;47.662;18.324;2023-08-21T09:13:35;100767.81;;;35.16;44.91
73952;BME280;62304;47.662;18.324;2023-08-21T09:16:38;100776.63;;;35.45;43.90
73952;BME280;62304;47.662;18.324;2023-08-21T09:19:43;100765.94;;;35.29;43.58
73952;BME280;62304;47.662;18.324;2023-08-21T09:22:54;100765.78;;;35.57;42.60
73952;BME280;62304;47.662;18.324;2023-08-21T09:26:03;100767.50;;;35.25;43.57
73952;BME280;62304;47.662;18.324;2023-08-21T09:29:07;100757.81;;;35.79;43.24
73952;BME280;62304;47.662;18.324;2023-08-21T09:32:12;100756.44;;;35.86;42.25
73952;BME280;62304;47.662;18.324;2023-08-21T09:35:16;100748.81;;;35.88;42.77
73952;BME280;62304;47.662;18.324;2023-08-21T09:38:21;100738.31;;;36.55;41.05
73952;BME280;62304;47.662;18.324;2023-08-21T09:41:26;100738.03;;;36.59;40.28
73952;BME280;62304;47.662;18.324;2023-08-21T09:44:35;100732.28;;;36.53;39.44
73952;BME280;62304;47.662;18.324;2023-08-21T09:47:42;100735.59;;;36.04;39.81
73952;BME280;62304;47.662;18.324;2023-08-21T09:50:46;100737.03;;;36.21;42.69
73952;BME280;62304;47.662;18.324;2023-08-21T09:53:50;100730.09;;;36.65;40.12
73952;BME280;62304;47.662;18.324;2023-08-21T09:56:54;100723.09;;;36.79;40.37
73952;BME280;62304;47.662;18.324;2023-08-21T10:00:01;100725.94;;;36.84;39.96
73952;BME280;62304;47.662;18.324;2023-08-21T10:03:21;100717.31;;;37.03;38.57
73952;BME280;62304;47.662;18.324;2023-08-21T10:06:25;100716.03;;;36.98;40.07
73952;BME280;62304;47.662;18.324;2023-08-21T10:09:29;100715.50;;;37.61;39.18
73952;BME280;62304;47.662;18.324;2023-08-21T10:12:32;100712.13;;;37.20;38.89
73952;BME280;62304;47.662;18.324;2023-08-21T10:15:36;100712.84;;;37.02;39.04
73952;BME280;62304;47.662;18.324;2023-08-21T10:18:44;100716.47;;;36.84;39.04
73952;BME280;62304;47.662;18.324;2023-08-21T10:21:48;100713.16;;;37.22;38.83
73952;BME280;62304;47.662;18.324;2023-08-21T10:24:59;100707.81;;;37.45;38.66
73952;BME280;62304;47.662;18.324;2023-08-21T10:28:02;100708.81;;;37.29;37.62
73952;BME280;62304;47.662;18.324;2023-08-21T10:31:35;100704.19;;;37.02;38.99
73952;BME280;62304;47.662;18.324;2023-08-21T10:34:38;100704.63;;;37.30;38.16
73952;BME280;62304;47.662;18.324;2023-08-21T10:38:16;100696.00;;;37.80;36.94
73952;BME280;62304;47.662;18.324;2023-08-21T10:41:26;100693.66;;;37.78;37.21
73952;BME280;62304;47.662;18.324;2023-08-21T10:47:39;100698.19;;;37.18;36.15
73952;BME280;62304;47.662;18.324;2023-08-21T10:50:43;100694.81;;;37.57;35.20
73952;BME280;62304;47.662;18.324;2023-08-21T10:53:46;100693.56;;;37.84;34.73
73952;BME280;62304;47.662;18.324;2023-08-21T10:56:49;100698.34;;;38.00;35.74
73952;BME280;62304;47.662;18.324;2023-08-21T11:00:02;100695.44;;;38.00;34.71
73952;BME280;62304;47.662;18.324;2023-08-21T11:03:14;100692.53;;;38.00;35.74
73952;BME280;62304;47.662;18.324;2023-08-21T11:06:18;100684.84;;;38.34;34.66
73952;BME280;62304;47.662;18.324;2023-08-21T11:09:22;100689.91;;;38.72;34.47
73952;BME280;62304;47.662;18.324;2023-08-21T11:12:27;100681.31;;;38.67;33.94
73952;BME280;62304;47.662;18.324;2023-08-21T11:15:31;100687.91;;;38.80;32.21
73952;BME280;62304;47.662;18.324;2023-08-21T11:18:36;100690.09;;;38.04;32.92
73952;BME280;62304;47.662;18.324;2023-08-21T11:21:40;100687.56;;;37.82;32.98
73952;BME280;62304;47.662;18.324;2023-08-21T11:24:45;100687.56;;;38.13;33.45
73952;BME280;62304;47.662;18.324;2023-08-21T11:27:49;100680.44;;;38.72;33.61
73952;BME280;62304;47.662;18.324;2023-08-21T11:30:51;100672.66;;;39.06;34.24
73952;BME280;62304;47.662;18.324;2023-08-21T11:33:55;100677.66;;;39.31;33.86
73952;BME280;62304;47.662;18.324;2023-08-21T11:37:00;100678.53;;;39.60;33.63
73952;BME280;62304;47.662;18.324;2023-08-21T11:40:09;100669.19;;;39.87;32.86
73952;BME280;62304;47.662;18.324;2023-08-21T11:43:12;100672.72;;;39.60;32.31
73952;BME280;62304;47.662;18.324;2023-08-21T11:46:18;100675.91;;;40.16;32.03
73952;BME280;62304;47.662;18.324;2023-08-21T11:49:21;100671.69;;;39.50;32.76
73952;BME280;62304;47.662;18.324;2023-08-21T11:52:29;100674.41;;;38.70;32.94
73952;BME280;62304;47.662;18.324;2023-08-21T11:55:34;100670.72;;;39.68;32.41
73952;BME280;62304;47.662;18.324;2023-08-21T11:58:44;100667.03;;;37.98;33.19
73952;BME280;62304;47.662;18.324;2023-08-21T12:01:51;100666.19;;;38.87;32.96
73952;BME280;62304;47.662;18.324;2023-08-21T12:05:03;100664.00;;;39.26;32.48
73952;BME280;62304;47.662;18.324;2023-08-21T12:08:08;100658.16;;;39.52;32.71
73952;BME280;62304;47.662;18.324;2023-08-21T12:11:11;100668.88;;;39.44;31.85
73952;BME280;62304;47.662;18.324;2023-08-21T12:14:14;100659.34;;;40.11;30.26
73952;BME280;62304;47.662;18.324;2023-08-21T12:17:18;100663.00;;;39.70;31.04
73952;BME280;62304;47.662;18.324;2023-08-21T12:20:21;100657.22;;;39.91;29.45
73952;BME280;62304;47.662;18.324;2023-08-21T12:23:24;100654.66;;;39.54;30.59
73952;BME280;62304;47.662;18.324;2023-08-21T12:26:27;100655.00;;;39.17;30.21
73952;BME280;62304;47.662;18.324;2023-08-21T12:29:46;100650.06;;;39.92;29.49
73952;BME280;62304;47.662;18.324;2023-08-21T12:32:50;100644.47;;;40.14;28.99
73952;BME280;62304;47.662;18.324;2023-08-21T12:35:53;100638.94;;;40.03;27.45
73952;BME280;62304;47.662;18.324;2023-08-21T12:38:57;100640.06;;;39.46;28.00
73952;BME280;62304;47.662;18.324;2023-08-21T12:42:00;100643.84;;;39.08;29.04
73952;BME280;62304;47.662;18.324;2023-08-21T12:45:03;100647.19;;;38.99;28.83
73952;BME280;62304;47.662;18.324;2023-08-21T12:48:07;100641.03;;;39.02;29.73
73952;BME280;62304;47.662;18.324;2023-08-21T12:51:11;100639.31;;;39.33;30.89
73952;BME280;62304;47.662;18.324;2023-08-21T12:54:14;100636.66;;;39.35;30.77
73952;BME280;62304;47.662;18.324;2023-08-21T12:57:17;100624.63;;;39.05;31.11
73952;BME280;62304;47.662;18.324;2023-08-21T13:00:20;100627.78;;;39.07;31.48
73952;BME280;62304;47.662;18.324;2023-08-21T13:03:23;100634.19;;;39.26;30.61
73952;BME280;62304;47.662;18.324;2023-08-21T13:06:28;100617.41;;;39.45;30.17
73952;BME280;62304;47.662;18.324;2023-08-21T13:09:31;100622.84;;;39.82;30.34
73952;BME280;62304;47.662;18.324;2023-08-21T13:12:36;100618.62;;;38.77;31.16
73952;BME280;62304;47.662;18.324;2023-08-21T13:15:42;100609.81;;;38.82;32.01
73952;BME280;62304;47.662;18.324;2023-08-21T13:18:47;100610.19;;;39.25;31.08
73952;BME280;62304;47.662;18.324;2023-08-21T13:21:50;100604.91;;;39.03;31.21
73952;BME280;62304;47.662;18.324;2023-08-21T13:24:54;100601.31;;;39.44;29.49
73952;BME280;62304;47.662;18.324;2023-08-21T13:27:57;100602.56;;;39.35;28.71
73952;BME280;62304;47.662;18.324;2023-08-21T13:31:00;100596.25;;;39.11;29.48
73952;BME280;62304;47.662;18.324;2023-08-21T13:34:03;100592.31;;;38.88;30.01
73952;BME280;62304;47.662;18.324;2023-08-21T13:37:06;100591.28;;;38.98;30.32
73952;BME280;62304;47.662;18.324;2023-08-21T13:40:09;100591.34;;;39.19;30.11
73952;BME280;62304;47.662;18.324;2023-08-21T13:43:18;100593.63;;;39.00;30.32
73952;BME280;62304;47.662;18.324;2023-08-21T13:46:25;100590.03;;;39.07;29.78
73952;BME280;62304;47.662;18.324;2023-08-21T13:49:29;100584.94;;;38.74;28.62
73952;BME280;62304;47.662;18.324;2023-08-21T13:52:32;100586.16;;;38.91;29.28
73952;BME280;62304;47.662;18.324;2023-08-21T13:55:35;100583.19;;;38.58;29.83
73952;BME280;62304;47.662;18.324;2023-08-21T13:58:38;100583.91;;;38.84;28.99
73952;BME280;62304;47.662;18.324;2023-08-21T14:01:41;100585.75;;;38.87;29.48
73952;BME280;62304;47.662;18.324;2023-08-21T14:04:45;100580.72;;;38.75;29.71
73952;BME280;62304;47.662;18.324;2023-08-21T14:07:49;100568.81;;;37.95;30.38
73952;BME280;62304;47.662;18.324;2023-08-21T14:10:52;100571.09;;;38.02;30.52
73952;BME280;62304;47.662;18.324;2023-08-21T14:13:55;100565.09;;;37.81;30.73
73952;BME280;62304;47.662;18.324;2023-08-21T14:16:58;100571.34;;;38.30;30.81
73952;BME280;62304;47.662;18.324;2023-08-21T14:20:02;100561.06;;;38.03;31.74
73952;BME280;62304;47.662;18.324;2023-08-21T14:23:05;100557.12;;;37.87;32.05
73952;BME280;62304;47.662;18.324;2023-08-21T14:26:09;100559.69;;;37.91;32.46
73952;BME280;62304;47.662;18.324;2023-08-21T14:29:13;100551.44;;;37.95;32.61
73952;BME280;62304;47.662;18.324;2023-08-21T14:32:16;100549.72;;;38.18;31.98
73952;BME280;62304;47.662;18.324;2023-08-21T14:35:19;100546.25;;;38.06;31.98
73952;BME280;62304;47.662;18.324;2023-08-21T14:38:22;100544.59;;;37.35;33.24
73952;BME280;62304;47.662;18.324;2023-08-21T14:41:25;100548.41;;;37.43;32.77
73952;BME280;62304;47.662;18.324;2023-08-21T14:44:28;100549.13;;;36.93;34.09
73952;BME280;62304;47.662;18.324;2023-08-21T14:47:31;100551.75;;;36.54;35.07
73952;BME280;62304;47.662;18.324;2023-08-21T14:50:34;100548.59;;;36.34;35.23
73952;BME280;62304;47.662;18.324;2023-08-21T14:53:37;100549.53;;;35.94;35.86
73952;BME280;62304;47.662;18.324;2023-08-21T14:56:40;100551.16;;;35.60;36.35
73952;BME280;62304;47.662;18.324;2023-08-21T14:59:43;100546.00;;;35.47;36.04
73952;BME280;62304;47.662;18.324;2023-08-21T15:02:46;100552.66;;;35.37;35.63
73952;BME280;62304;47.662;18.324;2023-08-21T15:05:50;100546.75;;;35.13;35.94
73952;BME280;62304;47.662;18.324;2023-08-21T15:08:53;100552.59;;;35.07;36.43
73952;BME280;62304;47.662;18.324;2023-08-21T15:11:56;100542.00;;;34.80;37.20
73952;BME280;62304;47.662;18.324;2023-08-21T15:14:59;100538.44;;;34.52;37.85
73952;BME280;62304;47.662;18.324;2023-08-21T15:18:03;100543.47;;;34.41;37.97
73952;BME280;62304;47.662;18.324;2023-08-21T15:21:06;100541.16;;;34.23;38.51
73952;BME280;62304;47.662;18.324;2023-08-21T15:24:09;100538.06;;;33.99;39.02
73952;BME280;62304;47.662;18.324;2023-08-21T15:27:12;100531.00;;;33.94;38.70
73952;BME280;62304;47.662;18.324;2023-08-21T15:30:17;100532.88;;;33.81;39.13
73952;BME280;62304;47.662;18.324;2023-08-21T15:33:20;100528.66;;;33.71;39.02
73952;BME280;62304;47.662;18.324;2023-08-21T15:36:24;100529.72;;;33.68;38.68
73952;BME280;62304;47.662;18.324;2023-08-21T15:39:27;100514.59;;;33.51;38.87
73952;BME280;62304;47.662;18.324;2023-08-21T15:42:30;100524.25;;;33.42;38.65
73952;BME280;62304;47.662;18.324;2023-08-21T15:45:34;100517.97;;;33.27;38.52
73952;BME280;62304;47.662;18.324;2023-08-21T15:48:37;100518.19;;;33.13;38.35
73952;BME280;62304;47.662;18.324;2023-08-21T15:51:44;100511.91;;;32.98;38.17
73952;BME280;62304;47.662;18.324;2023-08-21T15:54:47;100506.69;;;32.91;38.03
73952;BME280;62304;47.662;18.324;2023-08-21T15:57:53;100503.78;;;32.80;38.41